createdAt,value
2019-05-15T00:00:49.743Z,7.30
2019-05-15T00:01:49.707Z,7.31
2019-05-15T00:02:49.696Z,7.28
2019-05-15T00:03:49.695Z,7.28
2019-05-15T00:04:49.683Z,7.28
2019-05-15T00:05:49.860Z,7.32
2019-05-15T00:06:49.652Z,7.30
2019-05-15T00:07:49.640Z,7.27
2019-05-15T00:08:49.629Z,7.30
2019-05-15T00:09:49.619Z,7.27
2019-05-15T00:10:49.634Z,7.21
2019-05-15T00:11:49.596Z,7.12
2019-05-15T00:12:49.586Z,7.21
2019-05-15T00:13:49.576Z,7.21
2019-05-15T00:14:49.564Z,7.17
2019-05-15T00:15:49.575Z,7.16
2019-05-15T00:16:49.547Z,7.12
2019-05-15T00:17:49.531Z,7.21
2019-05-15T00:18:49.521Z,7.17
2019-05-15T00:19:49.511Z,7.23
2019-05-15T00:20:49.889Z,7.16
2019-05-15T00:21:49.489Z,7.12
2019-05-15T00:22:49.478Z,7.09
2019-05-15T00:23:49.552Z,7.15
2019-05-15T00:24:49.458Z,7.09
2019-05-15T00:25:49.471Z,7.06
2019-05-15T00:26:49.436Z,7.09
2019-05-15T00:27:49.426Z,7.05
2019-05-15T00:28:49.414Z,7.10
2019-05-15T00:29:49.407Z,7.16
2019-05-15T00:30:49.420Z,7.09
2019-05-15T00:31:49.382Z,7.09
2019-05-15T00:32:49.371Z,7.12
2019-05-15T00:33:49.392Z,7.06
2019-05-15T00:34:49.348Z,7.07
2019-05-15T00:35:49.369Z,7.03
2019-05-15T00:36:49.328Z,7.05
2019-05-15T00:37:49.463Z,7.05
2019-05-15T00:38:49.308Z,7.05
2019-05-15T00:39:49.296Z,6.94
2019-05-15T00:40:49.747Z,6.95
2019-05-15T00:41:54.360Z,6.99
2019-05-15T00:42:50.263Z,6.91
2019-05-15T00:43:49.565Z,7.02
2019-05-15T00:44:49.471Z,7.02
2019-05-15T00:45:49.269Z,7.02
2019-05-15T00:46:49.226Z,7.05
2019-05-15T00:47:49.216Z,7.05
2019-05-15T00:48:49.200Z,6.99
2019-05-15T00:49:49.187Z,7.02
2019-05-15T00:50:49.180Z,6.97
2019-05-15T00:51:49.234Z,6.98
2019-05-15T00:52:49.158Z,6.91
2019-05-15T00:53:49.146Z,6.92
2019-05-15T00:54:49.143Z,6.91
2019-05-15T00:55:49.134Z,6.94
2019-05-15T00:56:49.114Z,6.91
2019-05-15T00:57:49.140Z,6.89
2019-05-15T00:58:49.095Z,6.91
2019-05-15T00:59:49.082Z,6.97
2019-05-15T01:00:49.071Z,6.87
2019-05-15T01:01:49.059Z,6.85
2019-05-15T01:02:49.050Z,6.77
2019-05-15T01:03:49.452Z,6.87
2019-05-15T01:04:49.046Z,6.85
2019-05-15T01:05:49.017Z,6.76
2019-05-15T01:06:52.494Z,6.84
2019-05-15T01:07:48.996Z,6.84
2019-05-15T01:08:49.024Z,6.85
2019-05-15T01:09:48.978Z,6.80
2019-05-15T01:10:49.106Z,6.79
2019-05-15T01:11:48.967Z,6.76
2019-05-15T01:12:48.942Z,6.80
2019-05-15T01:13:48.935Z,6.80
2019-05-15T01:14:49.138Z,6.80
2019-05-15T01:15:49.175Z,6.85
2019-05-15T01:16:49.140Z,6.74
2019-05-15T01:17:49.263Z,6.76
2019-05-15T01:18:49.241Z,6.80
2019-05-15T01:19:48.866Z,6.77
2019-05-15T01:20:49.490Z,6.74
2019-05-15T01:21:48.853Z,6.87
2019-05-15T01:22:48.836Z,6.89
2019-05-15T01:23:48.823Z,6.77
2019-05-15T01:24:48.812Z,6.84
2019-05-15T01:25:48.839Z,6.80
2019-05-15T01:26:49.334Z,6.71
2019-05-15T01:27:49.079Z,6.69
2019-05-15T01:28:49.572Z,6.73
2019-05-15T01:29:49.298Z,6.81
2019-05-15T01:30:48.869Z,6.74
2019-05-15T01:31:49.167Z,6.67
2019-05-15T01:32:48.723Z,6.76
2019-05-15T01:33:48.716Z,6.76
2019-05-15T01:34:49.157Z,6.79
2019-05-15T01:35:48.983Z,6.77
2019-05-15T01:36:49.088Z,6.74
2019-05-15T01:37:48.707Z,6.73
2019-05-15T01:38:48.660Z,6.69
2019-05-15T01:39:48.741Z,6.67
2019-05-15T01:40:48.776Z,6.64
2019-05-15T01:41:49.666Z,6.69
2019-05-15T01:42:49.993Z,6.67
2019-05-15T01:43:49.118Z,6.76
2019-05-15T01:44:48.664Z,6.67
2019-05-15T01:45:48.616Z,6.61
2019-05-15T01:46:48.591Z,6.67
2019-05-15T01:47:48.561Z,6.69
2019-05-15T01:48:49.331Z,6.69
2019-05-15T01:49:49.068Z,6.67
2019-05-15T01:50:49.207Z,6.66
2019-05-15T01:51:48.518Z,6.74
2019-05-15T01:52:48.505Z,6.69
2019-05-15T01:53:48.494Z,6.70
2019-05-15T01:54:48.992Z,6.71
2019-05-15T01:55:48.610Z,6.69
2019-05-15T01:56:49.523Z,6.61
2019-05-15T01:57:48.781Z,6.66
2019-05-15T01:58:48.781Z,6.64
2019-05-15T01:59:57.071Z,6.69
2019-05-15T02:00:49.442Z,6.67
2019-05-15T02:01:48.694Z,6.61
2019-05-15T02:02:48.398Z,6.58
2019-05-15T02:03:49.277Z,6.69
2019-05-15T02:04:48.739Z,6.64
2019-05-15T02:05:48.403Z,6.61
2019-05-15T02:06:48.481Z,6.54
2019-05-15T02:07:48.342Z,6.52
2019-05-15T02:08:49.688Z,6.56
2019-05-15T02:09:49.220Z,6.49
2019-05-15T02:10:49.345Z,6.52
2019-05-15T02:11:48.916Z,6.46
2019-05-15T02:12:48.289Z,6.54
2019-05-15T02:13:48.277Z,6.49
2019-05-15T02:14:48.619Z,6.41
2019-05-15T02:15:48.413Z,6.41
2019-05-15T02:16:48.555Z,6.43
2019-05-15T02:17:48.273Z,6.41
2019-05-15T02:18:48.865Z,6.46
2019-05-15T02:19:48.545Z,6.51
2019-05-15T02:20:49.403Z,6.43
2019-05-15T02:21:48.727Z,6.48
2019-05-15T02:22:48.565Z,6.49
2019-05-15T02:23:48.327Z,6.43
2019-05-15T02:24:48.322Z,6.40
2019-05-15T02:25:48.254Z,6.37
2019-05-15T02:26:48.356Z,6.22
2019-05-15T02:27:48.121Z,6.27
2019-05-15T02:28:48.803Z,6.40
2019-05-15T02:29:49.342Z,6.34
2019-05-15T02:30:50.389Z,6.37
2019-05-15T02:31:50.337Z,6.27
2019-05-15T02:32:50.104Z,6.27
2019-05-15T02:33:49.869Z,6.28
2019-05-15T02:34:50.082Z,6.21
2019-05-15T02:35:50.119Z,6.27
2019-05-15T02:36:49.368Z,6.18
2019-05-15T02:37:48.892Z,6.12
2019-05-15T02:38:48.628Z,6.15
2019-05-15T02:39:49.588Z,6.15
2019-05-15T02:40:49.433Z,6.19
2019-05-15T02:41:49.138Z,6.14
2019-05-15T02:42:49.251Z,6.17
2019-05-15T02:43:50.045Z,6.18
2019-05-15T02:44:49.961Z,6.12
2019-05-15T02:45:50.771Z,6.17
2019-05-15T02:46:49.998Z,6.14
2019-05-15T02:47:48.833Z,6.14
2019-05-15T02:48:48.845Z,6.09
2019-05-15T02:49:48.614Z,6.11
2019-05-15T02:50:50.060Z,6.04
2019-05-15T02:51:49.312Z,6.09
2019-05-15T02:52:49.709Z,6.09
2019-05-15T02:53:50.067Z,6.08
2019-05-15T02:54:49.813Z,6.08
2019-05-15T02:55:49.492Z,6.03
2019-05-15T02:56:49.508Z,6.01
2019-05-15T02:57:49.468Z,6.03
2019-05-15T02:58:49.102Z,6.00
2019-05-15T02:59:49.770Z,6.06
2019-05-15T03:00:52.952Z,6.01
2019-05-15T03:01:49.554Z,5.99
2019-05-15T03:02:49.883Z,6.04
2019-05-15T03:03:49.831Z,6.04
2019-05-15T03:04:48.653Z,5.94
2019-05-15T03:05:49.861Z,6.03
2019-05-15T03:06:49.603Z,5.97
2019-05-15T03:07:49.308Z,5.94
2019-05-15T03:08:49.507Z,5.93
2019-05-15T03:09:49.625Z,5.91
2019-05-15T03:10:49.675Z,5.91
2019-05-15T03:11:49.481Z,5.96
2019-05-15T03:12:49.526Z,5.94
2019-05-15T03:13:50.440Z,5.93
2019-05-15T03:14:49.097Z,5.82
2019-05-15T03:15:48.853Z,5.91
2019-05-15T03:16:49.756Z,5.86
2019-05-15T03:17:49.530Z,5.83
2019-05-15T03:18:50.599Z,5.79
2019-05-15T03:19:49.746Z,5.82
2019-05-15T03:20:50.146Z,5.81
2019-05-15T03:21:49.791Z,5.83
2019-05-15T03:22:49.206Z,5.85
2019-05-15T03:23:50.640Z,5.81
2019-05-15T03:24:50.160Z,5.82
2019-05-15T03:25:49.036Z,5.82
2019-05-15T03:26:49.711Z,5.86
2019-05-15T03:27:49.937Z,5.83
2019-05-15T03:28:49.586Z,5.79
2019-05-15T03:29:49.391Z,5.76
2019-05-15T03:31:18.245Z,5.81
2019-05-15T03:32:05.348Z,5.81
2019-05-15T03:32:55.799Z,5.81
2019-05-15T03:33:53.427Z,5.85
2019-05-15T03:34:55.624Z,5.81
2019-05-15T03:35:53.557Z,5.83
2019-05-15T03:36:53.099Z,5.83
2019-05-15T03:37:49.296Z,5.79
2019-05-15T03:38:49.908Z,5.79
2019-05-15T03:39:51.604Z,5.82
2019-05-15T03:40:49.821Z,5.83
2019-05-15T03:41:49.730Z,5.85
2019-05-15T03:42:49.646Z,5.85
2019-05-15T03:43:49.659Z,5.81
2019-05-15T03:44:49.995Z,5.83
2019-05-15T03:45:49.315Z,5.93
2019-05-15T03:46:49.182Z,5.82
2019-05-15T03:47:49.173Z,5.81
2019-05-15T03:48:48.759Z,5.83
2019-05-15T03:49:49.422Z,5.83
2019-05-15T03:50:48.929Z,5.82
2019-05-15T03:51:50.117Z,5.83
2019-05-15T03:52:49.590Z,5.79
2019-05-15T03:53:49.730Z,5.82
2019-05-15T03:54:49.517Z,5.82
2019-05-15T03:55:49.067Z,5.82
2019-05-15T03:56:49.871Z,5.85
2019-05-15T03:57:49.900Z,5.76
2019-05-15T03:58:49.312Z,5.82
2019-05-15T03:59:48.963Z,5.85
2019-05-15T04:00:49.839Z,5.79
2019-05-15T04:01:49.648Z,5.89
2019-05-15T04:02:48.808Z,5.94
2019-05-15T04:03:49.563Z,5.90
2019-05-15T04:04:50.175Z,5.97
2019-05-15T04:05:49.442Z,5.93
2019-05-15T04:06:49.889Z,5.91
2019-05-15T04:07:49.507Z,5.91
2019-05-15T04:08:49.722Z,5.94
2019-05-15T04:09:49.370Z,5.96
2019-05-15T04:10:48.779Z,5.94
2019-05-15T04:11:49.626Z,5.96
2019-05-15T04:12:49.326Z,6.00
2019-05-15T04:13:49.769Z,5.96
2019-05-15T04:14:49.815Z,6.09
2019-05-15T04:15:49.834Z,6.03
2019-05-15T04:16:49.531Z,6.00
2019-05-15T04:17:49.352Z,6.09
2019-05-15T04:18:49.031Z,6.09
2019-05-15T04:19:49.613Z,6.19
2019-05-15T04:20:49.301Z,6.11
2019-05-15T04:21:49.395Z,6.17
2019-05-15T04:22:49.182Z,6.17
2019-05-15T04:23:49.694Z,6.11
2019-05-15T04:24:49.405Z,6.19
2019-05-15T04:25:49.317Z,6.19
2019-05-15T04:26:48.696Z,6.19
2019-05-15T04:27:49.257Z,6.22
2019-05-15T04:28:49.454Z,6.21
2019-05-15T04:29:49.235Z,6.27
2019-05-15T04:30:49.291Z,6.30
2019-05-15T04:31:55.710Z,6.27
2019-05-15T04:32:48.819Z,6.37
2019-05-15T04:33:49.103Z,6.25
2019-05-15T04:34:48.941Z,6.38
2019-05-15T04:35:49.508Z,6.25
2019-05-15T04:36:49.509Z,6.30
2019-05-15T04:37:49.467Z,6.28
2019-05-15T04:38:49.836Z,6.41
2019-05-15T04:39:49.152Z,6.38
2019-05-15T04:40:49.856Z,6.40
2019-05-15T04:41:49.742Z,6.40
2019-05-15T04:42:49.606Z,6.40
2019-05-15T04:43:49.360Z,6.40
2019-05-15T04:44:49.336Z,6.37
2019-05-15T04:45:49.599Z,6.44
2019-05-15T04:46:49.528Z,6.46
2019-05-15T04:47:49.637Z,6.51
2019-05-15T04:48:49.871Z,6.52
2019-05-15T04:49:50.145Z,6.44
2019-05-15T04:50:49.452Z,6.49
2019-05-15T04:51:49.467Z,6.51
2019-05-15T04:52:49.918Z,6.41
2019-05-15T04:53:49.928Z,6.52
2019-05-15T04:54:49.217Z,6.54
2019-05-15T04:55:49.068Z,6.51
2019-05-15T04:56:48.904Z,6.58
2019-05-15T04:57:49.921Z,6.61
2019-05-15T04:58:50.266Z,6.62
2019-05-15T04:59:49.486Z,6.61
2019-05-15T05:00:49.633Z,6.56
2019-05-15T05:01:46.437Z,6.64
2019-05-15T05:02:49.495Z,6.67
2019-05-15T05:03:49.374Z,6.69
2019-05-15T05:04:49.194Z,6.74
2019-05-15T05:05:49.544Z,6.71
2019-05-15T05:06:49.281Z,6.81
2019-05-15T05:07:48.937Z,6.80
2019-05-15T05:08:48.832Z,6.77
2019-05-15T05:09:48.859Z,6.77
2019-05-15T05:10:48.839Z,6.73
2019-05-15T05:11:48.857Z,6.87
2019-05-15T05:12:50.576Z,6.85
2019-05-15T05:13:48.535Z,6.77
2019-05-15T05:14:48.418Z,6.94
2019-05-15T05:15:46.311Z,6.94
2019-05-15T05:16:48.877Z,6.91
2019-05-15T05:17:48.885Z,6.92
2019-05-15T05:18:48.597Z,7.02
2019-05-15T05:19:47.845Z,7.07
2019-05-15T05:20:48.395Z,7.13
2019-05-15T05:21:47.933Z,7.09
2019-05-15T05:22:48.344Z,6.99
2019-05-15T05:23:48.215Z,7.06
2019-05-15T05:24:47.814Z,7.05
2019-05-15T05:25:46.206Z,7.07
2019-05-15T05:26:48.856Z,7.09
2019-05-15T05:27:48.528Z,7.10
2019-05-15T05:28:48.424Z,7.20
2019-05-15T05:29:48.048Z,7.16
2019-05-15T05:30:48.189Z,7.23
2019-05-15T05:31:49.027Z,7.23
2019-05-15T05:32:46.101Z,7.31
2019-05-15T05:33:48.487Z,7.30
2019-05-15T05:34:48.198Z,7.35
2019-05-15T05:35:48.357Z,7.43
2019-05-15T05:36:47.968Z,7.40
2019-05-15T05:37:48.000Z,7.48
2019-05-15T05:38:46.045Z,7.48
2019-05-15T05:39:48.208Z,7.50
2019-05-15T05:40:46.035Z,7.49
2019-05-15T05:41:45.997Z,7.45
2019-05-15T05:42:47.976Z,7.49
2019-05-15T05:43:45.976Z,7.55
2019-05-15T05:44:45.977Z,7.63
2019-05-15T05:45:46.094Z,7.68
2019-05-15T05:46:45.945Z,7.71
2019-05-15T05:47:45.945Z,7.71
2019-05-15T05:48:45.921Z,7.74
2019-05-15T05:49:45.911Z,7.72
2019-05-15T05:50:45.928Z,7.79
2019-05-15T05:51:47.952Z,7.93
2019-05-15T05:52:45.877Z,7.90
2019-05-15T05:53:47.919Z,7.92
2019-05-15T05:54:45.858Z,7.97
2019-05-15T05:55:45.871Z,7.90
2019-05-15T05:56:48.110Z,8.04
2019-05-15T05:57:45.821Z,8.07
2019-05-15T05:58:45.811Z,8.10
2019-05-15T05:59:45.799Z,8.10
2019-05-15T06:00:48.603Z,8.11
2019-05-15T06:01:48.182Z,8.11
2019-05-15T06:02:48.786Z,8.07
2019-05-15T06:03:48.902Z,8.18
2019-05-15T06:04:47.857Z,8.22
2019-05-15T06:05:45.757Z,8.20
2019-05-15T06:06:45.722Z,8.29
2019-05-15T06:07:45.735Z,8.33
2019-05-15T06:08:47.830Z,8.30
2019-05-15T06:09:45.690Z,8.34
2019-05-15T06:10:45.704Z,8.34
2019-05-15T06:11:45.668Z,8.37
2019-05-15T06:12:45.659Z,8.37
2019-05-15T06:13:45.659Z,8.45
2019-05-15T06:14:45.637Z,8.43
2019-05-15T06:15:45.652Z,8.37
2019-05-15T06:16:47.982Z,8.41
2019-05-15T06:17:47.994Z,8.52
2019-05-15T06:18:45.600Z,8.58
2019-05-15T06:19:48.046Z,8.62
2019-05-15T06:20:45.597Z,8.59
2019-05-15T06:21:54.577Z,8.68
2019-05-15T06:22:47.883Z,8.65
2019-05-15T06:23:48.438Z,8.68
2019-05-15T06:24:48.395Z,8.73
2019-05-15T06:25:45.548Z,8.68
2019-05-15T06:26:45.505Z,8.77
2019-05-15T06:27:48.032Z,8.81
2019-05-15T06:28:45.489Z,8.91
2019-05-15T06:29:45.471Z,8.95
2019-05-15T06:30:45.487Z,9.04
2019-05-15T06:31:45.450Z,9.10
2019-05-15T06:33:03.859Z,9.18
2019-05-15T06:33:48.855Z,9.18
2019-05-15T06:34:45.419Z,9.31
2019-05-15T06:35:45.432Z,9.36
2019-05-15T06:36:45.403Z,9.50
2019-05-15T06:37:45.392Z,9.47
2019-05-15T06:38:45.381Z,9.48
2019-05-15T06:39:45.364Z,9.56
2019-05-15T06:40:45.378Z,9.66
2019-05-15T06:41:45.352Z,9.75
2019-05-15T06:42:45.329Z,9.78
2019-05-15T06:43:45.321Z,9.81
2019-05-15T06:44:45.309Z,9.76
2019-05-15T06:45:45.333Z,9.84
2019-05-15T06:46:45.304Z,9.96
2019-05-15T06:47:45.276Z,10.09
2019-05-15T06:48:45.265Z,10.05
2019-05-15T06:49:45.269Z,10.26
2019-05-15T06:50:45.267Z,10.36
2019-05-15T06:51:45.234Z,10.44
2019-05-15T06:52:45.223Z,10.44
2019-05-15T06:53:45.209Z,10.53
2019-05-15T06:54:45.198Z,10.60
2019-05-15T06:55:45.211Z,10.55
2019-05-15T06:56:45.181Z,10.67
2019-05-15T06:57:45.163Z,10.70
2019-05-15T06:58:45.154Z,10.70
2019-05-15T06:59:45.143Z,10.82
2019-05-15T07:00:45.157Z,10.88
2019-05-15T07:01:45.119Z,10.94
2019-05-15T07:02:45.117Z,10.94
2019-05-15T07:03:45.100Z,11.04
2019-05-15T07:04:45.106Z,11.14
2019-05-15T07:05:45.155Z,11.21
2019-05-15T07:06:45.069Z,11.21
2019-05-15T07:07:45.093Z,11.29
2019-05-15T07:08:45.045Z,11.39
2019-05-15T07:09:45.041Z,11.33
2019-05-15T07:10:45.121Z,11.40
2019-05-15T07:11:45.011Z,11.36
2019-05-15T07:12:48.109Z,11.33
2019-05-15T07:13:44.991Z,11.35
2019-05-15T07:14:44.980Z,11.39
2019-05-15T07:15:44.994Z,11.36
2019-05-15T07:16:44.962Z,11.37
2019-05-15T07:17:44.947Z,11.35
2019-05-15T07:18:44.938Z,11.24
2019-05-15T07:19:44.924Z,11.29
2019-05-15T07:20:44.940Z,11.18
2019-05-15T07:21:44.912Z,11.17
2019-05-15T07:22:44.892Z,11.10
2019-05-15T07:23:44.889Z,11.11
2019-05-15T07:24:44.872Z,11.07
2019-05-15T07:25:44.884Z,11.04
2019-05-15T07:26:44.847Z,11.04
2019-05-15T07:27:44.837Z,11.17
2019-05-15T07:28:44.827Z,11.06
2019-05-15T07:29:44.814Z,11.04
2019-05-15T07:30:44.830Z,11.14
2019-05-15T07:31:44.793Z,11.06
2019-05-15T07:32:44.782Z,11.19
2019-05-15T07:33:44.772Z,11.28
2019-05-15T07:34:44.760Z,11.35
2019-05-15T07:35:44.773Z,11.29
2019-05-15T07:36:44.739Z,11.37
2019-05-15T07:37:44.730Z,11.35
2019-05-15T07:38:44.717Z,11.46
2019-05-15T07:39:44.702Z,11.33
2019-05-15T07:40:44.725Z,11.33
2019-05-15T07:41:44.683Z,11.40
2019-05-15T07:42:44.669Z,11.49
2019-05-15T07:43:44.658Z,11.47
2019-05-15T07:44:44.647Z,11.49
2019-05-15T07:45:44.872Z,11.44
2019-05-15T07:46:44.627Z,11.44
2019-05-15T07:47:44.614Z,11.46
2019-05-15T07:48:44.611Z,11.35
2019-05-15T07:49:44.594Z,11.37
2019-05-15T07:50:44.605Z,11.37
2019-05-15T07:51:44.583Z,11.37
2019-05-15T07:52:44.563Z,11.47
2019-05-15T07:53:44.549Z,11.42
2019-05-15T07:54:44.540Z,11.47
2019-05-15T07:55:44.557Z,11.52
2019-05-15T07:56:44.520Z,11.58
2019-05-15T07:57:44.503Z,11.57
2019-05-15T07:58:44.490Z,11.62
2019-05-15T07:59:44.479Z,11.76
2019-05-15T08:00:44.500Z,11.82
2019-05-15T08:01:44.459Z,11.90
2019-05-15T08:02:44.448Z,12.09
2019-05-15T08:03:56.536Z,12.31
2019-05-15T08:04:45.426Z,12.24
2019-05-15T08:05:57.936Z,12.35
2019-05-15T08:06:45.402Z,12.46
2019-05-15T08:07:44.391Z,12.62
2019-05-15T08:08:44.383Z,12.65
2019-05-15T08:09:44.371Z,12.77
2019-05-15T08:10:44.385Z,12.82
2019-05-15T08:11:44.350Z,12.78
2019-05-15T08:12:44.337Z,12.83
2019-05-15T08:13:44.326Z,12.85
2019-05-15T08:14:47.340Z,12.93
2019-05-15T08:15:45.327Z,13.03
2019-05-15T08:16:44.296Z,13.00
2019-05-15T08:18:00.109Z,12.92
2019-05-15T08:18:45.270Z,13.05
2019-05-15T08:19:44.260Z,13.05
2019-05-15T08:20:44.275Z,13.15
2019-05-15T08:21:44.237Z,13.20
2019-05-15T08:22:45.961Z,13.33
2019-05-15T08:23:44.217Z,13.46
2019-05-15T08:24:44.204Z,13.59
2019-05-15T08:25:44.222Z,13.64
2019-05-15T08:26:45.644Z,13.73
2019-05-15T08:27:44.171Z,13.89
2019-05-15T08:28:44.159Z,13.87
2019-05-15T08:29:44.149Z,13.82
2019-05-15T08:30:44.172Z,13.87
2019-05-15T08:31:44.127Z,13.96
2019-05-15T08:32:44.138Z,13.95
2019-05-15T08:33:44.107Z,13.96
2019-05-15T08:34:44.102Z,13.84
2019-05-15T08:35:47.988Z,13.87
2019-05-15T08:36:45.071Z,13.89
2019-05-15T08:37:44.064Z,13.87
2019-05-15T08:38:44.052Z,13.84
2019-05-15T08:39:44.042Z,13.91
2019-05-15T08:40:44.054Z,13.85
2019-05-15T08:41:44.019Z,13.85
2019-05-15T08:42:44.009Z,13.75
2019-05-15T08:43:43.997Z,13.91
2019-05-15T08:44:43.988Z,14.00
2019-05-15T08:45:44.004Z,13.96
2019-05-15T08:46:44.458Z,13.89
2019-05-15T08:47:43.959Z,13.99
2019-05-15T08:48:43.951Z,14.03
2019-05-15T08:49:43.932Z,14.12
2019-05-15T08:50:43.948Z,13.96
2019-05-15T08:51:43.913Z,13.87
2019-05-15T08:52:43.902Z,13.96
2019-05-15T08:53:43.892Z,13.99
2019-05-15T08:54:43.882Z,14.15
2019-05-15T08:55:43.896Z,14.10
2019-05-15T08:56:43.859Z,14.17
2019-05-15T08:57:43.872Z,14.25
2019-05-15T08:58:43.835Z,14.25
2019-05-15T08:59:43.824Z,14.35
2019-05-15T09:00:44.210Z,14.33
2019-05-15T09:01:43.802Z,14.36
2019-05-15T09:02:43.821Z,14.43
2019-05-15T09:03:43.783Z,14.33
2019-05-15T09:04:43.772Z,14.27
2019-05-15T09:05:43.783Z,14.33
2019-05-15T09:06:43.762Z,14.27
2019-05-15T09:07:43.735Z,14.33
2019-05-15T09:08:43.727Z,14.46
2019-05-15T09:09:43.721Z,14.46
2019-05-15T09:10:43.726Z,14.57
2019-05-15T09:11:43.688Z,14.70
2019-05-15T09:12:43.687Z,14.84
2019-05-15T09:13:44.377Z,14.88
2019-05-15T09:14:43.656Z,14.94
2019-05-15T09:15:43.682Z,15.10
2019-05-15T09:16:43.636Z,15.13
2019-05-15T09:17:43.631Z,15.17
2019-05-15T09:18:43.612Z,15.25
2019-05-15T09:19:43.601Z,15.35
2019-05-15T09:20:43.620Z,15.46
2019-05-15T09:21:43.581Z,15.57
2019-05-15T09:22:43.574Z,15.39
2019-05-15T09:23:43.565Z,15.46
2019-05-15T09:24:43.582Z,15.53
2019-05-15T09:25:43.563Z,15.60
2019-05-15T09:26:43.530Z,15.43
2019-05-15T09:27:43.517Z,15.47
2019-05-15T09:28:43.506Z,15.43
2019-05-15T09:29:43.494Z,15.39
2019-05-15T09:30:43.508Z,15.51
2019-05-15T09:31:43.472Z,15.51
2019-05-15T09:32:43.462Z,15.62
2019-05-15T09:33:43.450Z,15.75
2019-05-15T09:34:50.898Z,15.90
2019-05-15T09:35:44.458Z,16.02
2019-05-15T09:36:45.249Z,16.04
2019-05-15T09:37:43.405Z,16.00
2019-05-15T09:38:43.393Z,15.90
2019-05-15T09:39:43.387Z,16.00
2019-05-15T09:40:46.552Z,16.02
2019-05-15T09:41:44.359Z,15.87
2019-05-15T09:42:43.351Z,15.89
2019-05-15T09:43:43.340Z,15.80
2019-05-15T09:44:43.326Z,15.80
2019-05-15T09:45:43.341Z,15.69
2019-05-15T09:46:43.311Z,15.74
2019-05-15T09:47:43.302Z,15.69
2019-05-15T09:48:43.284Z,15.74
2019-05-15T09:49:43.276Z,15.74
2019-05-15T09:50:43.285Z,15.80
2019-05-15T09:51:43.250Z,15.76
2019-05-15T09:52:43.236Z,15.74
2019-05-15T09:53:43.228Z,15.75
2019-05-15T09:54:43.219Z,15.80
2019-05-15T09:55:43.231Z,15.80
2019-05-15T09:56:43.193Z,15.90
2019-05-15T09:57:43.181Z,15.93
2019-05-15T09:58:43.172Z,16.00
2019-05-15T09:59:43.161Z,15.84
2019-05-15T10:00:43.183Z,15.92
2019-05-15T10:01:43.140Z,15.80
2019-05-15T10:02:43.129Z,15.90
2019-05-15T10:03:44.554Z,15.89
2019-05-15T10:04:43.127Z,15.90
2019-05-15T10:05:43.162Z,15.97
2019-05-15T10:06:43.085Z,15.90
2019-05-15T10:07:43.082Z,15.97
2019-05-15T10:08:43.068Z,15.90
2019-05-15T10:09:43.064Z,15.97
2019-05-15T10:10:43.082Z,15.86
2019-05-15T10:11:43.031Z,15.92
2019-05-15T10:12:43.029Z,15.93
2019-05-15T10:13:43.022Z,15.87
2019-05-15T10:14:43.006Z,15.96
2019-05-15T10:15:43.011Z,15.87
2019-05-15T10:16:42.977Z,15.90
2019-05-15T10:17:42.964Z,15.93
2019-05-15T10:18:42.957Z,15.90
2019-05-15T10:19:42.946Z,15.93
2019-05-15T10:20:42.956Z,16.05
2019-05-15T10:21:42.988Z,16.04
2019-05-15T10:22:42.911Z,16.04
2019-05-15T10:23:42.904Z,16.04
2019-05-15T10:24:42.909Z,16.07
2019-05-15T10:25:42.908Z,16.02
2019-05-15T10:26:42.892Z,16.07
2019-05-15T10:27:42.858Z,16.08
2019-05-15T10:28:42.849Z,16.04
2019-05-15T10:29:42.834Z,15.90
2019-05-15T10:30:42.850Z,15.80
2019-05-15T10:31:42.813Z,15.76
2019-05-15T10:32:42.804Z,15.65
2019-05-15T10:33:42.793Z,15.49
2019-05-15T10:34:42.781Z,15.54
2019-05-15T10:35:42.796Z,15.59
2019-05-15T10:36:42.759Z,15.67
2019-05-15T10:37:42.748Z,15.82
2019-05-15T10:38:42.758Z,15.84
2019-05-15T10:39:42.725Z,15.90
2019-05-15T10:40:58.629Z,16.00
2019-05-15T10:41:43.702Z,16.08
2019-05-15T10:42:42.698Z,16.01
2019-05-15T10:43:46.062Z,16.04
2019-05-15T10:44:43.669Z,16.04
2019-05-15T10:45:43.500Z,16.11
2019-05-15T10:46:42.649Z,16.02
2019-05-15T10:47:42.649Z,16.02
2019-05-15T10:48:42.629Z,15.92
2019-05-15T10:49:42.616Z,15.90
2019-05-15T10:50:42.628Z,15.89
2019-05-15T10:51:42.599Z,15.92
2019-05-15T10:52:42.605Z,15.83
2019-05-15T10:53:42.573Z,15.83
2019-05-15T10:54:42.565Z,15.62
2019-05-15T10:55:42.577Z,15.49
2019-05-15T10:56:42.540Z,15.46
2019-05-15T10:57:44.384Z,15.59
2019-05-15T10:58:42.518Z,15.57
2019-05-15T10:59:42.507Z,15.75
2019-05-15T11:00:42.521Z,15.82
2019-05-15T11:01:42.486Z,15.93
2019-05-15T11:02:42.478Z,15.84
2019-05-15T11:03:42.463Z,15.94
2019-05-15T11:04:42.453Z,16.07
2019-05-15T11:05:45.773Z,16.04
2019-05-15T11:06:42.430Z,16.02
2019-05-15T11:07:42.421Z,16.08
2019-05-15T11:08:42.410Z,16.15
2019-05-15T11:09:42.397Z,16.23
2019-05-15T11:10:42.411Z,16.17
2019-05-15T11:11:42.378Z,16.15
2019-05-15T11:12:42.364Z,16.05
2019-05-15T11:13:42.354Z,16.01
2019-05-15T11:14:42.345Z,16.17
2019-05-15T11:15:42.737Z,16.08
2019-05-15T11:16:42.321Z,16.21
2019-05-15T11:17:42.319Z,16.30
2019-05-15T11:18:42.414Z,16.25
2019-05-15T11:19:42.473Z,16.45
2019-05-15T11:20:42.315Z,16.45
2019-05-15T11:21:43.636Z,16.48
2019-05-15T11:22:42.902Z,16.41
2019-05-15T11:23:42.776Z,16.42
2019-05-15T11:24:42.234Z,16.38
2019-05-15T11:25:42.254Z,16.33
2019-05-15T11:26:42.252Z,16.35
2019-05-15T11:27:42.202Z,16.21
2019-05-15T11:28:42.191Z,16.15
2019-05-15T11:29:42.183Z,16.07
2019-05-15T11:30:42.208Z,16.05
2019-05-15T11:31:42.157Z,16.07
2019-05-15T11:32:42.151Z,16.07
2019-05-15T11:33:42.137Z,16.01
2019-05-15T11:34:42.125Z,15.96
2019-05-15T11:35:56.973Z,15.97
2019-05-15T11:36:43.102Z,15.94
2019-05-15T11:37:45.539Z,16.00
2019-05-15T11:38:42.084Z,15.86
2019-05-15T11:39:46.224Z,15.93
2019-05-15T11:40:43.084Z,15.86
2019-05-15T11:41:42.052Z,15.87
2019-05-15T11:42:42.044Z,15.92
2019-05-15T11:43:42.032Z,16.07
2019-05-15T11:44:42.017Z,16.04
2019-05-15T11:45:42.034Z,16.08
2019-05-15T11:46:41.997Z,16.17
2019-05-15T11:47:41.983Z,16.27
2019-05-15T11:48:41.973Z,16.27
2019-05-15T11:49:41.964Z,16.28
2019-05-15T11:50:41.982Z,16.23
2019-05-15T11:51:41.942Z,16.34
2019-05-15T11:52:41.929Z,16.63
2019-05-15T11:53:41.919Z,16.94
2019-05-15T11:54:41.911Z,17.15
2019-05-15T11:55:41.921Z,17.37
2019-05-15T11:56:41.886Z,17.82
2019-05-15T11:57:46.865Z,18.44
2019-05-15T11:58:42.864Z,18.78
2019-05-15T11:59:45.060Z,18.82
2019-05-15T12:00:41.868Z,18.78
2019-05-15T12:01:41.832Z,18.60
2019-05-15T12:02:41.852Z,18.41
2019-05-15T12:03:41.812Z,18.26
2019-05-15T12:04:41.799Z,18.12
2019-05-15T12:05:41.817Z,18.07
2019-05-15T12:06:41.780Z,17.95
2019-05-15T12:07:41.768Z,17.84
2019-05-15T12:08:41.759Z,17.78
2019-05-15T12:09:41.745Z,17.66
2019-05-15T12:10:41.762Z,17.56
2019-05-15T12:11:41.726Z,17.43
2019-05-15T12:12:41.715Z,17.40
2019-05-15T12:13:41.706Z,17.41
2019-05-15T12:14:41.694Z,17.26
2019-05-15T12:15:41.714Z,17.34
2019-05-15T12:16:41.757Z,17.43
2019-05-15T12:17:41.660Z,17.43
2019-05-15T12:18:41.658Z,17.33
2019-05-15T12:19:41.640Z,17.23
2019-05-15T12:20:41.662Z,17.01
2019-05-15T12:21:41.617Z,17.11
2019-05-15T12:22:41.609Z,17.06
2019-05-15T12:23:41.599Z,17.07
2019-05-15T12:24:41.599Z,17.03
2019-05-15T12:25:41.645Z,17.14
2019-05-15T12:26:41.564Z,17.12
2019-05-15T12:27:41.556Z,17.07
2019-05-15T12:28:41.550Z,17.14
2019-05-15T12:29:41.565Z,16.97
2019-05-15T12:30:41.559Z,17.00
2019-05-15T12:31:41.512Z,17.04
2019-05-15T12:32:41.505Z,16.98
2019-05-15T12:33:41.488Z,16.93
2019-05-15T12:34:49.519Z,16.97
2019-05-15T12:35:41.499Z,16.96
2019-05-15T12:36:52.130Z,16.88
2019-05-15T12:37:42.459Z,16.85
2019-05-15T12:38:41.437Z,16.88
2019-05-15T12:39:41.426Z,16.82
2019-05-15T12:59:44.630Z,16.43
2019-05-15T13:00:41.236Z,16.43
2019-05-15T13:01:41.200Z,16.41
2019-05-15T13:02:41.231Z,16.35
2019-05-15T13:03:41.205Z,16.45
2019-05-15T13:04:41.152Z,16.39
2019-05-15T13:05:41.162Z,16.46
2019-05-15T13:06:49.437Z,16.50
2019-05-15T13:07:42.158Z,16.52
2019-05-15T13:08:41.106Z,16.49
2019-05-15T13:09:41.095Z,16.35
2019-05-15T13:10:41.105Z,16.17
2019-05-15T13:11:41.074Z,16.17
2019-05-15T13:12:55.827Z,16.20
2019-05-15T13:13:42.052Z,16.25
2019-05-15T13:14:41.042Z,16.21
2019-05-15T13:15:41.551Z,16.17
2019-05-15T13:16:41.017Z,16.20
2019-05-15T13:17:41.007Z,16.17
2019-05-15T13:18:40.993Z,16.15
2019-05-15T13:19:40.983Z,16.17
2019-05-15T13:20:40.999Z,16.21
2019-05-15T13:21:40.961Z,16.14
2019-05-15T13:22:40.953Z,16.23
2019-05-15T13:23:40.943Z,16.24
2019-05-15T13:24:40.931Z,16.23